Riffel, Illinois
Current Conditions -  °F | °C
As of 6:55 PM on Wednesday 17 Dec 2014 (Local Time) from KFOA Reporting Station
Clear Clear  
Wind Chill: 24°   Ceiling: Unl
Heat Index: 29°   Visibility: 10mi
Dew Point: 25°   Wind: 5mph
Humidity: 85%   Direction: 360°N
Pressure: 30.31"   Gusts: NA
Location:  38.8267°N, 88.5024°W
Report Text: KFOA 180055Z AUTO 36004KT 10SM CLR M02/M04 A3031 RMK AO2 T10181040
Loading
Personal Weather Stations






























Interactive Weather Map New forecast layout! Learn more

10-Day Weather Forecast

Advertisements
Track Severe Weather on mobile